Portada
METAR-TAF:

METAR-TAF

Aeropuertos :

Salem-Leckrone Airport

Salem, Illinois, Estados Unidos

latitud: 38-38-34N, longitud: 088-57-51W, altitud: 175 m

Observación

El informe se hizo hace 37 minutos, a las 18:35 UTC
Viento 4 kt del sur
Temperatura 33°C
Humedad 44%
Presión 1023 hPa
Visibilidad: 16.1 km
Cielo despejado

METAR: KSLO 191835Z AUTO 17004KT 10SM CLR 33/19 A3022 RMK AO2 T03250185

Hora: 14:12 (19:12 UTC)


TAF: falta

Observaciones y pronósticos meteorológicos de más de 4000 aeropuertos (mensajes METAR y TAF).

Los puntos amarillos y rojos representan las estaciones disponibles.

Ponga el ratón en el punto deseado para ver el nombre de la estación.

Haga clic para ver las observaciones y los pronósticos meteorológicos.

Para cambiar el mapa : haga clic en los botones verdes con una cruz de color negro para hacer un zoom, en el botón verde con un guión para alejar o en las flechas verdes para mapas adyacentes.


METAR-TAF: